Terminal Aerodrome Forecast
Issued by NWS Tuscon, AZ

Home | Current Version | Previous Version | Text Only | Print | Product List | Glossary On
Versions: 1 2 3 4 5 6 7 8 9 10 11 12
000
FTUS45 KTWC 241700
TAFTUS
TAF
KTUS 241728Z 2418/2518 VRB05KT P6SM FEW250
     FM242000 33012KT P6SM SCT250
     FM250300 01004KT P6SM SKC
     FM251100 13007KT P6SM SKC
     FM251600 11009KT P6SM SKC=

USA.gov is the U.S. government's official web portal to all federal, state and local government web resources and services.